ラパス の空港の天気 - METARとTAF

エル・アルト国際空港 ( SLLP / LPB ) - ボリビア ラパス
飛行場実況気象(Metar)
観測時間11/27 04:00 BOT (11/27 08:00 UTC)
風向・風速東 3m/s
視程10km以上
天気現象
なし
気温2℃
湿度87%
気圧1037hPa
METARSLLP 270800Z 08006KT 9999 NSC 02/M00 Q1037
過去の天気等 Google飛行場航空写真 Wunderground天気予報

過去48時間のMETAR

飛行場予報(TAF)
発表時間: 11/27 00:00 BOT (11/27 04:00 UTC)
予報対象時間: 27日2時 BOT ~ 28日2時 BOT
風向・風速東北東 3m/s
視程10km以上
なし
27日10時 BOT ~ 27日12時 BOT に徐々に
風向・風速東南東 6m/s
27日16時 BOT ~ 27日20時 BOT に徐々に
風向・風速東北東 3m/s
TAF SLLP 270400Z 2706/2806 07005KT 9999 NSC TX17/2719Z TN00/2710Z
BECMG 2714/2716 12012KT
BECMG 2720/2724 07006KT